createdAt,value
2023-01-17T00:02:05.766Z,1.83
2023-01-17T00:04:52.300Z,4.20
2023-01-17T00:07:40.235Z,6.55
2023-01-17T00:10:11.037Z,6.93
2023-01-17T00:12:39.297Z,4.57
2023-01-17T00:15:08.756Z,2.10
2023-01-17T00:17:36.390Z,3.38
2023-01-17T00:20:23.957Z,3.22
2023-01-17T00:23:09.218Z,2.70
2023-01-17T00:25:57.508Z,4.53
2023-01-17T00:28:24.836Z,4.95
2023-01-17T00:30:51.816Z,2.60
2023-01-17T00:33:18.637Z,4.47
2023-01-17T00:35:46.836Z,4.03
2023-01-17T00:38:14.870Z,6.32
2023-01-17T00:40:42.928Z,4.30
2023-01-17T00:43:29.494Z,3.53
2023-01-17T00:46:15.432Z,3.70
2023-01-17T00:49:01.712Z,4.60
2023-01-17T00:51:49.914Z,5.20
2023-01-17T00:54:35.168Z,7.72
2023-01-17T00:57:21.207Z,2.70
2023-01-17T01:00:06.549Z,2.78
2023-01-17T01:02:52.362Z,4.75
2023-01-17T01:05:38.312Z,4.25
2023-01-17T01:08:38.992Z,3.53
2023-01-17T01:11:27.360Z,5.78
2023-01-17T01:14:12.917Z,3.42
2023-01-17T01:16:58.258Z,4.68
2023-01-17T01:19:43.744Z,4.13
2023-01-17T01:22:29.056Z,5.25
2023-01-17T01:25:15.691Z,3.30
2023-01-17T01:28:01.007Z,6.78
2023-01-17T01:30:46.279Z,6.28
2023-01-17T01:33:20.592Z,7.22
2023-01-17T01:35:52.388Z,6.90
2023-01-17T01:38:21.794Z,9.05
2023-01-17T01:40:52.370Z,5.53
2023-01-17T01:43:38.683Z,8.57
2023-01-17T01:46:06.894Z,2.25
2023-01-17T01:48:37.778Z,2.10
2023-01-17T01:51:09.644Z,5.32
2023-01-17T01:53:41.648Z,4.13
2023-01-17T01:56:13.624Z,6.07
2023-01-17T01:58:42.650Z,4.57
2023-01-17T02:01:10.824Z,3.80
2023-01-17T02:03:41.991Z,3.65
2023-01-17T02:06:22.293Z,2.45
2023-01-17T02:08:50.406Z,2.50
2023-01-17T02:11:19.812Z,2.60
2023-01-17T02:13:47.420Z,4.82
2023-01-17T02:16:27.995Z,2.28
2023-01-17T02:19:10.443Z,4.13
2023-01-17T02:21:46.234Z,10.02
2023-01-17T02:24:59.005Z,2.90
2023-01-17T02:27:32.720Z,4.60
2023-01-17T02:30:35.949Z,5.10
2023-01-17T02:33:14.562Z,1.92
2023-01-17T02:35:54.405Z,2.10
2023-01-17T02:38:33.071Z,3.15
2023-01-17T02:41:05.314Z,3.20
2023-01-17T02:43:33.791Z,3.92
2023-01-17T02:46:01.597Z,3.50
2023-01-17T02:48:34.167Z,2.70
2023-01-17T02:51:27.203Z,4.40
2023-01-17T02:54:21.510Z,1.63
2023-01-17T02:57:01.677Z,2.30
2023-01-17T02:59:40.247Z,2.85
2023-01-17T03:02:22.330Z,3.53
2023-01-17T03:04:56.808Z,4.28
2023-01-17T03:07:26.954Z,6.97
2023-01-17T03:10:00.260Z,3.65
2023-01-17T03:12:29.182Z,5.55
2023-01-17T03:14:56.941Z,4.78
2023-01-17T03:17:29.690Z,5.32
2023-01-17T03:19:58.905Z,3.38
2023-01-17T03:22:26.613Z,6.15
2023-01-17T03:24:54.347Z,2.92
2023-01-17T03:27:21.957Z,2.20
2023-01-17T03:29:49.581Z,3.78
2023-01-17T03:32:17.230Z,3.15
2023-01-17T03:34:44.970Z,4.32
2023-01-17T03:37:14.040Z,2.53
2023-01-17T03:39:41.725Z,4.05
2023-01-17T03:42:09.425Z,2.15
2023-01-17T03:44:37.612Z,2.90
2023-01-17T03:47:05.362Z,3.92
2023-01-17T03:49:33.078Z,4.60
2023-01-17T03:52:00.683Z,3.47
2023-01-17T03:54:29.699Z,3.40
2023-01-17T03:56:57.367Z,4.43
2023-01-17T03:59:25.178Z,4.07
2023-01-17T04:01:52.946Z,2.13
2023-01-17T04:04:20.613Z,2.88
2023-01-17T04:06:48.302Z,7.85
2023-01-17T04:09:16.038Z,6.10
2023-01-17T04:11:45.188Z,1.83
2023-01-17T04:14:12.821Z,1.63
2023-01-17T04:16:40.707Z,2.65
2023-01-17T04:19:10.418Z,2.83
2023-01-17T04:21:38.106Z,4.15
2023-01-17T04:24:06.569Z,2.88
2023-01-17T04:26:34.223Z,2.67
2023-01-17T04:29:03.203Z,2.85
2023-01-17T04:31:30.899Z,4.78
2023-01-17T04:33:58.615Z,3.70
2023-01-17T04:36:26.271Z,2.50
2023-01-17T04:38:53.917Z,2.42
2023-01-17T04:41:21.571Z,2.20
2023-01-17T04:43:49.297Z,4.50
2023-01-17T04:46:18.361Z,2.30
2023-01-17T04:48:46.093Z,4.43
2023-01-17T04:51:13.742Z,6.32
2023-01-17T04:53:41.458Z,6.88
2023-01-17T04:56:09.348Z,2.95
2023-01-17T04:58:37.041Z,3.70
2023-01-17T05:01:05.407Z,3.50
2023-01-17T05:03:35.340Z,4.90
2023-01-17T05:06:03.257Z,2.42
2023-01-17T05:08:30.943Z,3.60
2023-01-17T05:10:58.652Z,6.78
2023-01-17T05:13:26.286Z,5.30
2023-01-17T05:15:54.162Z,2.28
2023-01-17T05:18:21.883Z,2.70
2023-01-17T05:20:50.905Z,3.47
2023-01-17T05:23:18.604Z,2.80
2023-01-17T05:25:46.315Z,3.05
2023-01-17T05:28:14.445Z,5.35
2023-01-17T05:30:42.350Z,3.42
2023-01-17T05:33:10.531Z,2.50
2023-01-17T05:35:38.989Z,4.57
2023-01-17T05:38:08.008Z,5.15
2023-01-17T05:40:36.107Z,4.47
2023-01-17T05:43:04.618Z,6.15
2023-01-17T05:45:33.903Z,3.22
2023-01-17T05:48:02.174Z,8.75
2023-01-17T05:50:32.609Z,3.13
2023-01-17T05:53:03.357Z,2.70
2023-01-17T05:55:33.424Z,2.60
2023-01-17T05:58:01.384Z,3.38
2023-01-17T06:00:32.031Z,3.58
2023-01-17T06:03:01.443Z,3.90
2023-01-17T06:05:30.218Z,5.03
2023-01-17T06:07:58.557Z,6.05
2023-01-17T06:10:28.344Z,2.95
2023-01-17T06:13:05.946Z,4.90
2023-01-17T06:15:34.041Z,3.78
2023-01-17T06:18:05.785Z,4.07
2023-01-17T06:20:34.318Z,5.35
2023-01-17T06:23:04.223Z,4.32
2023-01-17T06:25:36.261Z,6.22
2023-01-17T06:28:05.773Z,4.18
2023-01-17T06:30:33.521Z,3.53
2023-01-17T06:33:01.226Z,5.28
2023-01-17T06:35:29.423Z,5.50
2023-01-17T06:37:59.753Z,5.68
2023-01-17T06:40:28.277Z,3.42
2023-01-17T06:43:00.125Z,7.72
2023-01-17T06:45:29.721Z,5.30
2023-01-17T06:47:59.148Z,4.75
2023-01-17T06:50:27.200Z,3.95
2023-01-17T06:52:59.519Z,4.95
2023-01-17T06:55:28.819Z,5.47
2023-01-17T06:57:56.753Z,7.13
2023-01-17T07:00:24.815Z,6.75
2023-01-17T07:02:54.059Z,5.93
2023-01-17T07:05:21.872Z,5.60
2023-01-17T07:07:49.633Z,5.35
2023-01-17T07:10:17.815Z,4.70
2023-01-17T07:12:45.581Z,12.70
2023-01-17T07:15:13.766Z,8.07
2023-01-17T07:17:41.933Z,4.82
2023-01-17T07:20:11.999Z,6.15
2023-01-17T07:22:39.698Z,5.30
2023-01-17T07:25:08.260Z,6.68
2023-01-17T07:27:36.040Z,4.60
2023-01-17T07:30:03.909Z,4.82
2023-01-17T07:32:31.698Z,6.70
2023-01-17T07:34:59.394Z,6.07
2023-01-17T07:37:28.464Z,4.25
2023-01-17T07:39:56.536Z,6.60
2023-01-17T07:42:24.527Z,6.47
2023-01-17T07:44:52.289Z,7.35
2023-01-17T07:47:20.004Z,4.10
2023-01-17T07:49:47.670Z,4.68
2023-01-17T07:52:18.018Z,6.88
2023-01-17T07:54:47.234Z,6.60
2023-01-17T07:57:14.910Z,4.03
2023-01-17T07:59:42.568Z,3.47
2023-01-17T08:02:18.703Z,5.53
2023-01-17T08:04:46.552Z,7.43
2023-01-17T08:07:14.762Z,9.52
2023-01-17T08:09:43.073Z,7.72
2023-01-17T08:12:12.152Z,8.95
2023-01-17T08:14:39.879Z,9.88
2023-01-17T08:17:08.549Z,5.35
2023-01-17T08:19:36.217Z,8.98
2023-01-17T08:22:03.908Z,6.85
2023-01-17T08:24:31.609Z,6.22
2023-01-17T08:26:59.298Z,4.38
2023-01-17T08:29:29.282Z,3.17
2023-01-17T08:31:57.032Z,3.05
2023-01-17T08:34:24.866Z,4.65
2023-01-17T08:36:53.869Z,5.55
2023-01-17T08:39:21.631Z,3.92
2023-01-17T08:41:49.414Z,3.35
2023-01-17T08:44:17.255Z,4.28
2023-01-17T08:46:46.669Z,4.22
2023-01-17T08:49:14.308Z,6.78
2023-01-17T08:51:41.965Z,3.88
2023-01-17T08:54:12.934Z,4.95
2023-01-17T08:56:40.797Z,2.92
2023-01-17T08:59:08.479Z,4.20
2023-01-17T09:01:36.206Z,4.50
2023-01-17T09:04:05.631Z,3.35
2023-01-17T09:06:33.461Z,2.60
2023-01-17T09:09:01.942Z,3.95
2023-01-17T09:11:29.730Z,4.43
2023-01-17T09:13:57.417Z,3.33
2023-01-17T09:16:25.119Z,16.20
2023-01-17T09:18:55.100Z,3.75
2023-01-17T09:21:24.450Z,2.92
2023-01-17T09:23:52.852Z,17.75
2023-01-17T09:26:22.973Z,3.65
2023-01-17T09:28:51.354Z,3.67
2023-01-17T09:31:20.636Z,2.85
2023-01-17T09:33:48.415Z,5.53
2023-01-17T09:36:16.154Z,3.55
2023-01-17T09:38:45.357Z,5.22
2023-01-17T09:41:23.959Z,3.75
2023-01-17T09:43:55.588Z,4.07
2023-01-17T09:46:27.733Z,3.75
2023-01-17T09:49:02.774Z,4.07
2023-01-17T09:51:30.594Z,6.28
2023-01-17T09:54:00.223Z,2.58
2023-01-17T09:56:32.747Z,3.88
2023-01-17T09:59:19.622Z,3.45
2023-01-17T10:01:58.580Z,3.35
2023-01-17T10:04:44.721Z,3.63
2023-01-17T10:07:21.582Z,4.03
2023-01-17T10:10:07.788Z,8.10
2023-01-17T10:12:42.875Z,4.43
2023-01-17T10:15:27.975Z,2.43
2023-01-17T10:18:16.623Z,3.95
2023-01-17T10:20:55.248Z,4.63
2023-01-17T10:23:51.187Z,3.92
2023-01-17T10:26:24.948Z,3.70
2023-01-17T10:28:54.354Z,2.70
2023-01-17T10:31:24.990Z,2.22
2023-01-17T10:33:54.952Z,3.90
2023-01-17T10:36:24.266Z,2.67
2023-01-17T10:38:54.785Z,2.53
2023-01-17T10:41:29.464Z,4.43
2023-01-17T10:44:05.863Z,2.20
2023-01-17T10:46:40.693Z,2.70
2023-01-17T10:49:17.976Z,5.93
2023-01-17T10:52:00.185Z,6.25
2023-01-17T10:55:03.982Z,2.80
2023-01-17T10:57:39.007Z,4.85
2023-01-17T11:00:23.960Z,3.10
2023-01-17T11:02:53.156Z,3.33
2023-01-17T11:05:25.967Z,7.20
2023-01-17T11:08:02.143Z,8.37
2023-01-17T11:10:42.469Z,4.83
2023-01-17T11:13:29.190Z,3.57
2023-01-17T11:16:00.894Z,2.60
2023-01-17T11:18:31.707Z,7.13
2023-01-17T11:21:12.749Z,2.50
2023-01-17T11:23:42.943Z,1.40
2023-01-17T11:26:13.909Z,5.30
2023-01-17T11:28:43.268Z,7.40
2023-01-17T11:31:25.920Z,7.23
2023-01-17T11:34:08.205Z,4.97
2023-01-17T11:36:36.096Z,4.40
2023-01-17T11:39:06.864Z,2.83
2023-01-17T11:41:36.745Z,6.07
2023-01-17T11:44:23.185Z,1.97
2023-01-17T11:47:09.523Z,5.70
2023-01-17T11:49:37.310Z,1.70
2023-01-17T11:52:10.099Z,2.42
2023-01-17T11:54:42.435Z,3.05
2023-01-17T11:57:26.131Z,3.85
2023-01-17T12:00:02.386Z,1.83
2023-01-17T12:02:53.808Z,2.38
2023-01-17T12:05:42.214Z,2.00
2023-01-17T12:08:20.155Z,2.78
2023-01-17T12:10:56.057Z,4.82
2023-01-17T12:13:57.629Z,3.08
2023-01-17T12:16:39.980Z,3.58
2023-01-17T12:19:26.462Z,4.50
2023-01-17T12:22:08.842Z,6.85
2023-01-17T12:24:57.183Z,5.07
2023-01-17T12:27:34.587Z,4.53
2023-01-17T12:30:19.569Z,2.88
2023-01-17T12:33:07.973Z,3.15
2023-01-17T12:35:43.271Z,1.00
2023-01-17T12:38:27.438Z,1.77
2023-01-17T12:41:07.199Z,6.97
2023-01-17T12:43:38.027Z,3.72
2023-01-17T12:46:11.432Z,3.47
2023-01-17T12:48:41.055Z,1.50
2023-01-17T12:51:14.626Z,4.65
2023-01-17T12:53:51.191Z,3.58
2023-01-17T12:56:26.755Z,3.22
2023-01-17T12:58:57.261Z,3.45
2023-01-17T13:01:29.694Z,2.65
2023-01-17T13:04:17.848Z,2.28
2023-01-17T13:06:54.297Z,4.18
2023-01-17T13:09:24.340Z,3.28
2023-01-17T13:11:57.811Z,2.97
2023-01-17T13:14:25.452Z,4.15
2023-01-17T13:16:58.913Z,3.30
2023-01-17T13:19:40.759Z,4.85
2023-01-17T13:22:17.335Z,6.60
2023-01-17T13:24:57.105Z,2.15
2023-01-17T13:27:35.445Z,3.90
2023-01-17T13:30:22.183Z,4.68
2023-01-17T13:33:07.018Z,3.35
2023-01-17T13:35:43.634Z,3.60
2023-01-17T13:38:29.699Z,2.72
2023-01-17T13:41:01.344Z,3.70
2023-01-17T13:43:34.720Z,3.20
2023-01-17T13:46:04.971Z,5.20
2023-01-17T13:48:37.231Z,4.00
2023-01-17T13:51:07.523Z,1.83
2023-01-17T13:53:59.453Z,4.63
2023-01-17T13:56:33.271Z,2.47
2023-01-17T13:59:20.275Z,2.20
2023-01-17T14:01:54.864Z,2.38
2023-01-17T14:04:24.818Z,3.90
2023-01-17T14:06:59.454Z,1.92
2023-01-17T14:09:31.203Z,5.50
2023-01-17T14:12:03.106Z,1.95
2023-01-17T14:14:56.810Z,1.88
2023-01-17T14:17:59.275Z,3.40
2023-01-17T14:20:49.821Z,3.05
2023-01-17T14:23:32.959Z,1.77
2023-01-17T14:26:13.599Z,3.50
2023-01-17T14:28:41.469Z,2.45
2023-01-17T14:31:11.997Z,2.08
2023-01-17T14:33:42.010Z,4.63
2023-01-17T14:36:20.656Z,3.00
2023-01-17T14:38:49.938Z,2.90
2023-01-17T14:41:21.786Z,6.57
2023-01-17T14:43:51.386Z,2.67
2023-01-17T14:46:25.095Z,3.80
2023-01-17T14:49:00.128Z,5.97
2023-01-17T14:51:28.306Z,4.00
2023-01-17T14:53:59.352Z,3.58
2023-01-17T14:56:29.044Z,3.15
2023-01-17T14:59:07.791Z,8.02
2023-01-17T15:01:36.849Z,2.50
2023-01-17T15:04:05.273Z,2.75
2023-01-17T15:06:39.176Z,2.70
2023-01-17T15:09:12.447Z,7.13
2023-01-17T15:11:40.629Z,7.45
2023-01-17T15:14:09.189Z,2.80
2023-01-17T15:16:40.113Z,4.03
2023-01-17T15:19:12.758Z,10.57
2023-01-17T15:21:43.069Z,4.28
2023-01-17T15:24:18.266Z,3.47
2023-01-17T15:26:46.751Z,3.67
2023-01-17T15:29:26.418Z,4.35
2023-01-17T15:31:58.220Z,3.85
2023-01-17T15:34:30.762Z,4.93
2023-01-17T15:37:01.188Z,8.25
2023-01-17T15:39:35.111Z,6.72
2023-01-17T15:42:06.442Z,7.40
2023-01-17T15:44:47.615Z,6.90
2023-01-17T15:47:31.810Z,9.52
2023-01-17T15:50:00.662Z,7.22
2023-01-17T15:52:29.459Z,7.43
2023-01-17T15:55:12.664Z,6.97
2023-01-17T15:57:40.788Z,6.25
2023-01-17T16:00:21.960Z,7.72
2023-01-17T16:02:55.302Z,16.88
2023-01-17T16:05:43.464Z,8.80
2023-01-17T16:08:32.509Z,11.77
2023-01-17T16:11:06.376Z,9.02
2023-01-17T16:13:37.109Z,8.20
2023-01-17T16:16:13.366Z,8.07
2023-01-17T16:18:41.627Z,9.73
2023-01-17T16:21:19.637Z,6.68
2023-01-17T16:23:48.254Z,14.75
2023-01-17T16:26:17.847Z,13.05
2023-01-17T16:28:45.707Z,8.70
2023-01-17T16:31:13.577Z,10.57
2023-01-17T16:33:42.816Z,12.07
2023-01-17T16:36:16.318Z,9.38
2023-01-17T16:38:44.808Z,9.70
2023-01-17T16:41:12.638Z,9.55
2023-01-17T16:43:41.666Z,9.98
2023-01-17T16:46:12.118Z,11.68
2023-01-17T16:48:39.909Z,6.90
2023-01-17T16:51:08.859Z,11.27
2023-01-17T16:53:37.225Z,15.70
2023-01-17T16:56:12.067Z,8.40
2023-01-17T16:58:41.898Z,12.68
2023-01-17T17:01:11.579Z,11.93
2023-01-17T17:03:39.347Z,10.20
2023-01-17T17:06:07.653Z,13.88
2023-01-17T17:08:36.327Z,11.18
2023-01-17T17:11:13.832Z,10.15
2023-01-17T17:13:44.336Z,11.27
2023-01-17T17:16:17.518Z,11.10
2023-01-17T17:18:46.953Z,12.20
2023-01-17T17:21:15.135Z,10.55
2023-01-17T17:23:42.798Z,7.28
2023-01-17T17:26:10.517Z,11.20
2023-01-17T17:28:38.216Z,8.60
2023-01-17T17:31:10.556Z,9.77
2023-01-17T17:33:38.842Z,11.68
2023-01-17T17:36:10.010Z,12.02
2023-01-17T17:38:48.293Z,11.57
2023-01-17T17:41:15.997Z,14.45
2023-01-17T17:43:43.888Z,12.45
2023-01-17T17:46:13.290Z,9.73
2023-01-17T17:48:41.199Z,10.32
2023-01-17T17:51:08.867Z,13.35
2023-01-17T17:53:36.518Z,17.65
2023-01-17T17:56:06.536Z,11.38
2023-01-17T17:58:36.039Z,8.80
2023-01-17T18:01:05.672Z,16.63
2023-01-17T18:03:34.975Z,11.43
2023-01-17T18:06:05.415Z,14.75
2023-01-17T18:08:33.814Z,13.18
2023-01-17T18:11:02.843Z,10.23
2023-01-17T18:13:31.286Z,14.35
2023-01-17T18:16:07.995Z,13.25
2023-01-17T18:18:39.179Z,12.30
2023-01-17T18:21:13.232Z,14.73
2023-01-17T18:23:42.654Z,15.60
2023-01-17T18:26:16.976Z,15.73
2023-01-17T18:28:44.741Z,13.85
2023-01-17T18:31:13.097Z,12.38
2023-01-17T18:33:42.188Z,14.40
2023-01-17T18:36:11.621Z,12.90
2023-01-17T18:38:41.781Z,17.05
2023-01-17T18:41:11.507Z,14.80
2023-01-17T18:43:39.702Z,13.95
2023-01-17T18:46:08.275Z,19.45
2023-01-17T18:48:36.588Z,18.05
2023-01-17T18:51:07.862Z,16.58
2023-01-17T18:53:37.488Z,18.52
2023-01-17T18:56:07.642Z,18.90
2023-01-17T18:58:37.855Z,14.95
2023-01-17T19:01:10.585Z,20.48
2023-01-17T19:03:39.383Z,12.73
2023-01-17T19:06:10.682Z,18.08
2023-01-17T19:08:38.631Z,16.17
2023-01-17T19:11:06.787Z,20.40
2023-01-17T19:13:36.291Z,16.70
2023-01-17T19:16:06.089Z,12.85
2023-01-17T19:18:34.373Z,16.13
2023-01-17T19:21:05.534Z,15.85
2023-01-17T19:23:35.585Z,19.25
2023-01-17T19:26:03.728Z,15.13
2023-01-17T19:28:33.197Z,15.50
2023-01-17T19:31:03.861Z,16.10
2023-01-17T19:33:31.782Z,18.45
2023-01-17T19:36:00.944Z,16.73
2023-01-17T19:38:29.018Z,17.10
2023-01-17T19:40:58.229Z,22.23
2023-01-17T19:43:26.014Z,16.45
2023-01-17T19:45:58.508Z,18.50
2023-01-17T19:48:26.679Z,17.80
2023-01-17T19:50:55.555Z,13.75
2023-01-17T19:53:23.576Z,16.75
2023-01-17T19:56:06.061Z,15.70
2023-01-17T19:58:35.802Z,14.75
2023-01-17T20:01:11.053Z,20.63
2023-01-17T20:03:41.434Z,18.63
2023-01-17T20:06:10.134Z,21.17
2023-01-17T20:08:37.951Z,15.98
2023-01-17T20:11:06.955Z,22.92
2023-01-17T20:13:36.051Z,15.95
2023-01-17T20:16:04.431Z,18.17
2023-01-17T20:18:33.550Z,16.98
2023-01-17T20:21:05.252Z,18.13
2023-01-17T20:23:38.387Z,15.98
2023-01-17T20:26:07.178Z,19.92
2023-01-17T20:28:38.529Z,17.25
2023-01-17T20:31:08.875Z,23.05
2023-01-17T20:33:36.661Z,19.50
2023-01-17T20:36:10.677Z,16.70
2023-01-17T20:38:44.609Z,18.35
2023-01-17T20:41:14.019Z,16.02
2023-01-17T20:43:43.798Z,15.40
2023-01-17T20:46:12.883Z,15.10
2023-01-17T20:48:45.562Z,16.92
2023-01-17T20:51:14.198Z,18.75
2023-01-17T20:53:43.413Z,22.38
2023-01-17T20:56:12.800Z,18.95
2023-01-17T20:58:40.996Z,20.52
2023-01-17T21:01:12.189Z,18.52
2023-01-17T21:03:41.087Z,21.02
2023-01-17T21:06:11.556Z,17.98
2023-01-17T21:08:41.346Z,16.15
2023-01-17T21:11:10.636Z,18.02
2023-01-17T21:13:38.402Z,18.38
2023-01-17T21:16:06.921Z,19.25
2023-01-17T21:18:36.879Z,18.55
2023-01-17T21:21:07.274Z,18.27
2023-01-17T21:23:35.130Z,20.55
2023-01-17T21:26:02.868Z,20.58
2023-01-17T21:28:32.319Z,19.00
2023-01-17T21:31:00.199Z,15.95
2023-01-17T21:33:29.437Z,19.67
2023-01-17T21:36:07.826Z,17.48
2023-01-17T21:38:35.628Z,18.13
2023-01-17T21:41:03.639Z,22.02
2023-01-17T21:43:31.308Z,18.42
2023-01-17T21:46:03.133Z,18.55
2023-01-17T21:48:30.891Z,21.17
2023-01-17T21:51:05.805Z,20.95
2023-01-17T21:53:35.196Z,23.40
2023-01-17T21:56:20.680Z,24.90
2023-01-17T21:58:53.521Z,24.38
2023-01-17T22:01:23.054Z,22.35
2023-01-17T22:03:52.671Z,20.75
2023-01-17T22:06:23.151Z,22.33
2023-01-17T22:08:51.066Z,20.23
2023-01-17T22:11:21.076Z,19.95
2023-01-17T22:13:49.123Z,19.85
2023-01-17T22:16:18.666Z,19.40
2023-01-17T22:18:46.859Z,21.75
2023-01-17T22:21:16.619Z,21.10
2023-01-17T22:23:48.776Z,19.38
2023-01-17T22:26:16.929Z,16.15
2023-01-17T22:28:44.749Z,23.65
2023-01-17T22:31:14.627Z,19.63
2023-01-17T22:33:44.426Z,17.73
2023-01-17T22:36:13.724Z,20.13
2023-01-17T22:38:41.999Z,17.67
2023-01-17T22:41:13.227Z,21.83
2023-01-17T22:43:42.816Z,22.02
2023-01-17T22:46:12.625Z,15.23
2023-01-17T22:48:41.066Z,16.30
2023-01-17T22:51:11.218Z,17.92
2023-01-17T22:53:41.398Z,15.88
2023-01-17T22:56:13.040Z,14.52
2023-01-17T22:58:44.616Z,16.88
2023-01-17T23:01:14.373Z,17.60
2023-01-17T23:03:42.851Z,15.65
2023-01-17T23:06:12.246Z,16.20
2023-01-17T23:08:41.920Z,16.20
2023-01-17T23:11:41.031Z,16.27
2023-01-17T23:14:11.291Z,18.65
2023-01-17T23:16:57.988Z,19.25
2023-01-17T23:19:26.851Z,14.57
2023-01-17T23:22:15.344Z,16.50
2023-01-17T23:24:44.559Z,14.73
2023-01-17T23:27:33.820Z,15.07
2023-01-17T23:30:02.052Z,14.50
2023-01-17T23:32:29.877Z,15.57
2023-01-17T23:34:57.593Z,15.93
2023-01-17T23:37:50.025Z,14.45
2023-01-17T23:40:18.724Z,16.23
2023-01-17T23:43:04.999Z,14.00
2023-01-17T23:45:35.611Z,19.83
2023-01-17T23:48:05.440Z,18.33
2023-01-17T23:50:33.582Z,17.20
2023-01-17T23:53:06.897Z,15.60
2023-01-17T23:55:37.232Z,13.95
2023-01-17T23:58:07.282Z,18.25
